Accueil
METAR-TAF:

METAR-TAF

Aéroports :

Sanikiluaq, Nunavut, Canada

Aérodrome de Sanikiluaq

latitude: 56-32N, longitude: 079-15W, altitude: 32 m

Observation

Le bulletin a été fait il y a 3 heures et 28 minutes, à 23:00 UTC
Vent 17 kt de sud avec des rafales jusqu'à 23 kt
Température -21°C
Humidité 84%
Pression 1024 hPa
Visibilité: 12.9 km
Quelques nuages à une hauteur de 20000 ft
cristaux de glace, Chasse-neige basse

METAR: CYSK 222300Z 19017G23KT 8SM IC DRSN FEW200 M21/M23 A3023 RMK CS2 LAST OBS/NEXT 231300UTC SLP242

Heure: 21:28 (02:28 UTC)


TAF: absent

Observations et prévisions météorologiques de plus de 4000 aéroports (messages METAR et TAF).

Les stations disponibles sont représentées par des disques jaunes et rouges sur la carte.

Passer la souris dessus pour voir le nom de la station.

Cliquer dessus pour voir les observations et prévisions météorologiques.

Pour changer de carte: cliquez sur les boutons verts avec une croix noire pour zoomer, sur le bouton vert avec un tiret pour effectuer un zoom arrière, ou sur les flèches vertes pour les cartes adjacentes.


METAR-TAF: